Time;durP1;ratioP1;P1;durP2;ratioP2;P2;SDS_P1;SDS_P2;PMS_P1;PMS_P2;Temp;Humidity;BMP_temperature;BMP_pressure;BME280_temperature;BME280_humidity;BME280_pressure;Samples;Min_cycle;Max_cycle;Signal;HPM_P1;HPM_P2
2022/04/16 00:00:22;;;;;;;;;;;;;;;21.23;42.68;102661.34;7287034;19;153699;-64
2022/04/16 00:02:48;;;;;;;;;;;;;;;21.22;42.56;102668.94;7286453;19;151923;-67
2022/04/16 00:05:15;;;;;;;;;;;;;;;21.23;42.53;102661.34;7287510;19;153378;-68
2022/04/16 00:07:42;;;;;;;;;;;;;;;21.21;42.92;102672.03;7286457;19;153229;-66
2022/04/16 00:10:09;;;;;;;;;;;;;;;21.20;42.75;102665.56;7285929;19;152106;-68
2022/04/16 00:12:36;;;;;;;;;;;;;;;21.20;42.77;102671.19;7285706;19;153510;-62
2022/04/16 00:15:06;;;;;;;;;;;;;;;21.20;42.46;102668.38;7284781;19;154055;-65
2022/04/16 00:17:35;;;;;;;;;;;;;;;21.19;42.73;102669.47;7286563;19;151812;-63
2022/04/16 00:20:02;;;;;;;;;;;;;;;21.20;42.78;102675.94;7292516;19;153074;-66
2022/04/16 00:22:29;;;;;;;;;;;;;;;21.18;42.97;102664.97;7287254;19;152469;-65
2022/04/16 00:24:56;;;;;;;;;;;;;;;21.18;42.72;102676.22;7283927;19;154332;-65
2022/04/16 00:27:24;;;;;;;;;;;;;;;21.19;42.72;102685.50;7283599;19;153319;-66
2022/04/16 00:29:50;;;;;;;;;;;;;;;21.16;42.97;102678.47;7286598;19;152209;-65
2022/04/16 00:32:19;;;;;;;;;;;;;;;21.17;42.62;102676.47;7284662;19;152650;-63
2022/04/16 00:34:46;;;;;;;;;;;;;;;21.17;42.75;102679.28;7285417;19;153250;-65
2022/04/16 00:37:13;;;;;;;;;;;;;;;21.14;42.78;102674.22;7285226;19;151798;-69
2022/04/16 00:39:40;;;;;;;;;;;;;;;21.16;42.59;102683.25;7286181;19;153161;-66
2022/04/16 00:42:07;;;;;;;;;;;;;;;21.14;42.59;102677.88;7292124;19;153261;-66
2022/04/16 00:44:34;;;;;;;;;;;;;;;21.14;42.74;102677.88;7284217;19;152617;-65
2022/04/16 00:47:01;;;;;;;;;;;;;;;21.12;43.10;102680.06;7281839;19;152113;-66
2022/04/16 00:49:27;;;;;;;;;;;;;;;21.14;42.79;102671.41;7287459;19;151985;-66
2022/04/16 00:51:54;;;;;;;;;;;;;;;21.13;42.92;102672.50;7283379;19;153310;-67
2022/04/16 00:54:21;;;;;;;;;;;;;;;21.13;42.63;102678.13;7283774;19;154431;-67
2022/04/16 00:56:54;;;;;;;;;;;;;;;21.13;42.56;102678.13;7283939;19;151664;-67
2022/04/16 00:59:21;;;;;;;;;;;;;;;21.10;43.09;102679.50;7284165;19;153317;-67
2022/04/16 01:01:47;;;;;;;;;;;;;;;21.10;42.81;102687.94;7284516;19;153968;-70
2022/04/16 01:04:14;;;;;;;;;;;;;;;21.11;42.80;102684.03;7292658;19;151527;-66
2022/04/16 01:06:46;;;;;;;;;;;;;;;21.12;43.00;102687.69;7284035;19;154556;-64
2022/04/16 01:09:19;;;;;;;;;;;;;;;21.09;42.70;102685.38;7285528;19;151910;-67
2022/04/16 01:11:46;;;;;;;;;;;;;;;21.09;43.11;102686.22;7284342;19;153343;-64
2022/04/16 01:14:17;;;;;;;;;;;;;;;21.10;42.96;102684.28;7281425;19;153706;-65
2022/04/16 01:16:44;;;;;;;;;;;;;;;21.08;42.87;102686.50;7282490;19;152161;-65
2022/04/16 01:19:12;;;;;;;;;;;;;;;21.08;42.72;102678.91;7285502;19;152626;-65
2022/04/16 01:21:39;;;;;;;;;;;;;;;21.07;43.18;102682.88;7283310;19;153309;-64
2022/04/16 01:24:09;;;;;;;;;;;;;;;21.08;42.93;102683.69;7292757;19;152183;-67
2022/04/16 01:26:35;;;;;;;;;;;;;;;21.06;42.73;102683.97;7283888;19;153614;-65
2022/04/16 01:29:02;;;;;;;;;;;;;;;21.06;42.90;102675.53;7283145;19;151891;-65
2022/04/16 01:31:30;;;;;;;;;;;;;;;21.05;43.10;102679.47;7285481;19;152543;-66
2022/04/16 01:33:57;;;;;;;;;;;;;;;21.07;42.69;102682.00;7282195;19;153497;-65
2022/04/16 01:36:25;;;;;;;;;;;;;;;21.05;43.11;102678.63;7285082;19;151565;-67
2022/04/16 01:38:52;;;;;;;;;;;;;;;21.05;43.15;102679.47;7282073;19;152486;-67
2022/04/16 01:41:19;;;;;;;;;;;;;;;21.05;42.75;102684.22;7284147;19;153268;-67
2022/04/16 01:43:45;;;;;;;;;;;;;;;21.03;43.03;102680.88;7284952;19;151729;-62
2022/04/16 01:46:12;;;;;;;;;;;;;;;21.04;43.15;102683.38;7291085;19;152627;-64
2022/04/16 01:48:39;;;;;;;;;;;;;;;21.04;43.17;102679.72;7284292;19;151816;-63
2022/04/16 01:51:07;;;;;;;;;;;;;;;21.03;42.76;102672.44;7283910;19;153405;-64
2022/04/16 01:53:34;;;;;;;;;;;;;;;21.03;43.19;102684.50;7281308;19;152966;-68
2022/04/16 01:56:01;;;;;;;;;;;;;;;21.03;43.23;102681.69;7283357;19;151930;-66
2022/04/16 01:58:27;;;;;;;;;;;;;;;21.02;43.15;102680.00;7284632;19;154195;-68
2022/04/16 02:00:54;;;;;;;;;;;;;;;21.02;43.22;102690.41;7281112;19;153556;-63
2022/04/16 02:03:21;;;;;;;;;;;;;;;21.01;42.85;102686.75;7283835;19;152218;-67
2022/04/16 02:05:48;;;;;;;;;;;;;;;21.00;43.06;102687.00;7284075;19;154452;-65
2022/04/16 02:08:16;;;;;;;;;;;;;;;21.00;43.03;102692.63;7289625;19;153795;-64
2022/04/16 02:10:43;;;;;;;;;;;;;;;20.99;43.15;102690.91;7283630;19;152087;-68
2022/04/16 02:13:09;;;;;;;;;;;;;;;20.99;43.25;102694.59;7280638;19;154082;-69
2022/04/16 02:15:36;;;;;;;;;;;;;;;20.99;43.16;102688.13;7283859;19;151897;-69
2022/04/16 02:18:03;;;;;;;;;;;;;;;20.98;43.19;102687.28;7282614;19;154012;-64
2022/04/16 02:20:29;;;;;;;;;;;;;;;20.97;42.80;102688.41;7282764;19;153316;-68
2022/04/16 02:22:56;;;;;;;;;;;;;;;20.97;43.23;102698.78;7282784;19;151843;-68
2022/04/16 02:25:26;;;;;;;;;;;;;;;20.97;43.00;102704.41;7283669;19;153388;-67
2022/04/16 02:27:52;;;;;;;;;;;;;;;20.97;42.72;102696.84;7282820;19;153199;-69
2022/04/16 02:30:20;;;;;;;;;;;;;;;20.98;43.22;102697.69;7288072;19;151656;-65
2022/04/16 02:32:48;;;;;;;;;;;;;;;20.95;43.28;102698.19;7282075;19;153288;-66
2022/04/16 02:35:15;;;;;;;;;;;;;;;20.96;42.86;102694.28;7280582;19;151692;-69
2022/04/16 02:37:42;;;;;;;;;;;;;;;20.96;42.86;102697.09;7283706;19;153281;-64
2022/04/16 02:40:09;;;;;;;;;;;;;;;20.95;43.12;102693.44;7281987;19;153881;-61
2022/04/16 02:42:37;;;;;;;;;;;;;;;20.92;42.85;102691.16;7283897;19;152143;-63
2022/04/16 02:47:51;;;;;;;;;;;;;;;20.93;43.04;102698.50;7281771;19;152543;-67
2022/04/16 02:50:18;;;;;;;;;;;;;;;20.92;42.85;102691.16;7282886;19;151802;-67
2022/04/16 02:52:46;;;;;;;;;;;;;;;20.91;43.35;102691.44;7284230;19;153908;-69
2022/04/16 02:55:15;;;;;;;;;;;;;;;20.90;43.09;102695.34;7283248;19;154077;-65
2022/04/16 02:57:42;;;;;;;;;;;;;;;20.86;43.17;102695.03;7281712;19;152483;-64
2022/04/16 03:00:10;;;;;;;;;;;;;;;20.89;43.31;102693.69;7282842;19;153523;-64
2022/04/16 03:02:37;;;;;;;;;;;;;;;20.89;42.90;102688.91;7282191;19;151767;-63
2022/04/16 03:05:06;;;;;;;;;;;;;;;20.89;43.36;102693.69;7279741;19;153117;-65
2022/04/16 03:07:33;;;;;;;;;;;;;;;20.89;43.32;102690.88;7281139;19;153624;-65
2022/04/16 03:10:02;;;;;;;;;;;;;;;20.86;43.24;102686.63;7282096;19;153203;-68
2022/04/16 03:12:51;;;;;;;;;;;;;;;20.88;43.17;102690.00;7281887;19;152764;-66
2022/04/16 03:18:05;;;;;;;;;;;;;;;20.84;43.03;102689.72;7282546;19;152795;-65
2022/04/16 03:20:32;;;;;;;;;;;;;;;20.86;43.11;102684.66;7279090;19;153271;-65
2022/04/16 03:22:59;;;;;;;;;;;;;;;20.84;43.43;102686.91;7283097;19;151686;-68
2022/04/16 03:25:27;;;;;;;;;;;;;;;20.84;42.94;102686.91;7281154;19;152203;-68
2022/04/16 03:27:55;;;;;;;;;;;;;;;20.83;43.24;102687.16;7280653;19;153794;-64
2022/04/16 03:30:23;;;;;;;;;;;;;;;20.82;43.31;102691.06;7280103;19;152197;-64
2022/04/16 03:32:50;;;;;;;;;;;;;;;20.84;42.91;102691.66;7281674;19;153249;-67
2022/04/16 03:35:18;;;;;;;;;;;;;;;20.82;43.25;102688.25;7284089;19;153298;-67
2022/04/16 03:37:45;;;;;;;;;;;;;;;20.83;43.42;102692.78;7279912;19;153025;-67
2022/04/16 03:40:12;;;;;;;;;;;;;;;20.82;43.28;102693.88;7280532;19;153585;-68
2022/04/16 03:42:46;;;;;;;;;;;;;;;20.81;42.95;102692.19;7280464;19;151835;-64
2022/04/16 03:45:20;;;;;;;;;;;;;;;20.78;43.23;102693.59;7281358;19;152622;-69
2022/04/16 03:47:50;;;;;;;;;;;;;;;20.78;43.26;102704.81;7277819;19;153974;-69
2022/04/16 03:50:18;;;;;;;;;;;;;;;20.77;43.32;102717.16;7280215;19;151993;-67
2022/04/16 03:52:45;;;;;;;;;;;;;;;20.76;43.47;102715.47;7281422;19;153270;-67
2022/04/16 04:00:43;;;;;;;;;;;;;;;20.75;43.46;102719.41;7279790;19;154277;-65
2022/04/16 04:03:11;;;;;;;;;;;;;;;20.77;43.46;102721.94;7284773;19;151844;-64
2022/04/16 04:05:38;;;;;;;;;;;;;;;20.74;43.29;102728.94;7287029;19;153353;-63
2022/04/16 04:08:06;;;;;;;;;;;;;;;20.74;43.36;102728.94;7285586;19;153990;-67
2022/04/16 04:10:33;;;;;;;;;;;;;;;20.72;43.33;102731.16;7286997;19;152142;-67
2022/04/16 04:13:00;;;;;;;;;;;;;;;20.75;43.02;102727.84;7285382;19;152543;-66
2022/04/16 04:15:30;;;;;;;;;;;;;;;20.73;43.07;102730.06;7281249;19;153790;-66
2022/04/16 04:17:58;;;;;;;;;;;;;;;20.73;43.39;102732.00;7287300;19;152123;-65
2022/04/16 04:20:26;;;;;;;;;;;;;;;20.71;43.53;102732.28;7289934;19;153004;-70
2022/04/16 04:22:52;;;;;;;;;;;;;;;20.70;43.24;102727.78;7287088;19;152293;-66
2022/04/16 04:25:19;;;;;;;;;;;;;;;20.72;43.27;102733.97;7284383;19;152982;-68
2022/04/16 04:27:46;;;;;;;;;;;;;;;20.69;43.08;102726.09;7285572;19;152024;-64
2022/04/16 04:30:13;;;;;;;;;;;;;;;20.69;43.51;102728.88;7284032;19;152243;-67
2022/04/16 04:32:39;;;;;;;;;;;;;;;20.72;43.03;102735.94;7283546;19;153325;-69
2022/04/16 04:35:07;;;;;;;;;;;;;;;20.71;43.50;102739.88;7283404;19;153171;-64
2022/04/16 04:37:34;;;;;;;;;;;;;;;20.67;43.21;102742.34;7283148;19;152183;-64
2022/04/16 04:40:01;;;;;;;;;;;;;;;20.71;43.05;102748.31;7286042;19;153552;-68
2022/04/16 04:42:36;;;;;;;;;;;;;;;20.66;43.27;102749.09;7292054;19;153587;-65
2022/04/16 04:45:07;;;;;;;;;;;;;;;20.67;43.45;102741.53;7284409;19;153704;-68
2022/04/16 04:47:34;;;;;;;;;;;;;;;20.66;43.14;102748.25;7284663;19;153982;-67
2022/04/16 04:50:00;;;;;;;;;;;;;;;20.66;43.58;102748.25;7286335;19;152350;-69
2022/04/16 04:52:30;;;;;;;;;;;;;;;20.63;43.59;102752.41;7285945;19;153994;-71
2022/04/16 04:55:02;;;;;;;;;;;;;;;20.62;43.61;102745.13;7282551;19;153913;-66
2022/04/16 04:57:29;;;;;;;;;;;;;;;20.65;43.55;102746.53;7286171;19;151786;-64
2022/04/16 04:59:55;;;;;;;;;;;;;;;20.63;43.46;102746.78;7285080;19;152584;-67
2022/04/16 05:02:22;;;;;;;;;;;;;;;20.61;43.24;102746.22;7284212;19;153300;-65
2022/04/16 05:04:49;;;;;;;;;;;;;;;20.62;43.66;102749.88;7291284;19;152598;-69
2022/04/16 05:07:15;;;;;;;;;;;;;;;20.63;43.51;102745.94;7284205;19;153801;-65
2022/04/16 05:09:42;;;;;;;;;;;;;;;20.61;43.10;102757.47;7284544;19;152252;-66
2022/04/16 05:12:09;;;;;;;;;;;;;;;20.64;43.10;102761.69;7284609;19;154451;-64
2022/04/16 05:14:36;;;;;;;;;;;;;;;20.62;43.47;102764.78;7282685;19;153941;-63
2022/04/16 05:17:03;;;;;;;;;;;;;;;20.60;43.12;102764.19;7285651;19;152006;-67
2022/04/16 05:19:29;;;;;;;;;;;;;;;20.59;43.64;102770.06;7283688;19;152596;-63
2022/04/16 05:21:56;;;;;;;;;;;;;;;20.58;43.57;102771.19;7281738;19;153972;-67
2022/04/16 05:24:23;;;;;;;;;;;;;;;20.57;43.52;102775.97;7285060;19;151785;-66
2022/04/16 05:26:50;;;;;;;;;;;;;;;20.58;43.57;102780.44;7290513;19;153860;-67
2022/04/16 05:29:17;;;;;;;;;;;;;;;20.56;43.20;102777.06;7283242;19;151961;-67
2022/04/16 05:31:44;;;;;;;;;;;;;;;20.56;43.59;102787.44;7283802;19;153822;-67
2022/04/16 05:34:20;;;;;;;;;;;;;;;20.56;43.60;102782.69;7283035;19;154681;-64
2022/04/16 05:36:50;;;;;;;;;;;;;;;20.56;43.21;102781.84;7282136;19;151906;-67
2022/04/16 05:39:17;;;;;;;;;;;;;;;20.54;43.57;102786.84;7285164;19;152827;-69
2022/04/16 05:41:44;;;;;;;;;;;;;;;20.55;43.61;102791.38;7282791;19;152723;-65
2022/04/16 05:44:11;;;;;;;;;;;;;;;20.53;43.18;102797.25;7284838;19;151967;-67
2022/04/16 05:46:37;;;;;;;;;;;;;;;20.56;43.57;102805.16;7287815;19;153660;-64
2022/04/16 05:49:04;;;;;;;;;;;;;;;20.53;43.61;102797.25;7284492;19;152168;-70
2022/04/16 05:51:31;;;;;;;;;;;;;;;20.53;43.65;102796.41;7284627;19;152590;-71
2022/04/16 05:54:00;;;;;;;;;;;;;;;20.52;43.69;102803.97;7281986;19;154453;-69
2022/04/16 05:56:28;;;;;;;;;;;;;;;20.51;43.55;102802.28;7284063;19;151868;-64
2022/04/16 05:58:54;;;;;;;;;;;;;;;20.51;43.59;102804.22;7283409;19;155030;-68
2022/04/16 06:01:21;;;;;;;;;;;;;;;20.51;43.49;102807.03;7283172;19;153112;-64
2022/04/16 06:03:48;;;;;;;;;;;;;;;20.50;43.60;102811.81;7283083;19;152038;-64
2022/04/16 06:06:15;;;;;;;;;;;;;;;20.50;43.40;102813.75;7283826;19;153562;-68
2022/04/16 06:08:41;;;;;;;;;;;;;;;20.50;43.34;102823.03;7289724;19;153176;-68
2022/04/16 06:11:08;;;;;;;;;;;;;;;20.49;43.29;102824.16;7283689;19;154283;-66
2022/04/16 06:13:35;;;;;;;;;;;;;;;20.49;43.62;102826.13;7279682;19;153322;-67
2022/04/16 06:16:02;;;;;;;;;;;;;;;20.50;43.39;102830.63;7281600;19;151626;-67
2022/04/16 06:18:29;;;;;;;;;;;;;;;20.48;43.57;102830.03;7281793;19;152641;-67
2022/04/16 06:20:57;;;;;;;;;;;;;;;20.49;43.39;102834.56;7279059;19;154033;-70
2022/04/16 06:23:24;;;;;;;;;;;;;;;20.48;43.33;102830.03;7282132;19;151729;-63
2022/04/16 06:25:50;;;;;;;;;;;;;;;20.49;43.64;102829.75;7282319;19;152699;-62
2022/04/16 06:28:17;;;;;;;;;;;;;;;20.48;43.51;102827.25;7282993;19;153631;-63
2022/04/16 06:30:44;;;;;;;;;;;;;;;20.48;43.28;102821.63;7290074;19;152210;-70
2022/04/16 06:33:10;;;;;;;;;;;;;;;20.48;43.48;102830.03;7282431;19;152252;-66
2022/04/16 06:35:37;;;;;;;;;;;;;;;20.44;43.41;102832.53;7280068;19;151921;-66
2022/04/16 06:38:04;;;;;;;;;;;;;;;20.44;43.80;102835.34;7283421;19;152774;-68
2022/04/16 06:40:30;;;;;;;;;;;;;;;20.45;43.52;102834.22;7281062;19;154327;-63
2022/04/16 06:42:57;;;;;;;;;;;;;;;20.46;43.65;102832.25;7283401;19;151865;-65
2022/04/16 06:45:24;;;;;;;;;;;;;;;20.42;43.52;102827.16;7280794;19;153483;-66
2022/04/16 06:47:50;;;;;;;;;;;;;;;20.44;43.65;102828.88;7280147;19;153193;-63
2022/04/16 06:50:17;;;;;;;;;;;;;;;20.42;43.32;102827.16;7282786;19;152003;-66
2022/04/16 06:52:45;;;;;;;;;;;;;;;20.42;43.35;102831.94;7287995;19;152884;-68
2022/04/16 06:55:12;;;;;;;;;;;;;;;20.43;43.64;102825.22;7279013;19;151908;-63
2022/04/16 06:57:39;;;;;;;;;;;;;;;20.43;43.56;102828.03;7281770;19;152667;-68
2022/04/16 07:00:06;;;;;;;;;;;;;;;20.42;43.29;102818.75;7281609;19;153326;-63
2022/04/16 07:02:37;;;;;;;;;;;;;;;20.42;43.44;102815.94;7279048;19;151907;-69
2022/04/16 07:05:05;;;;;;;;;;;;;;;20.40;43.62;102812.53;7283866;19;151954;-64
2022/04/16 07:07:31;;;;;;;;;;;;;;;20.38;43.33;102811.97;7278750;19;153979;-65
2022/04/16 07:09:59;;;;;;;;;;;;;;;20.39;43.75;102818.44;7279658;19;153199;-64
2022/04/16 07:12:27;;;;;;;;;;;;;;;20.39;43.52;102819.28;7280899;19;152695;-67
2022/04/16 07:15:00;;;;;;;;;;;;;;;20.39;43.39;102818.44;7287350;19;152604;-66
2022/04/16 07:17:27;;;;;;;;;;;;;;;20.39;43.38;102816.47;7280074;19;156894;-64
2022/04/16 07:19:54;;;;;;;;;;;;;;;20.40;43.43;102822.91;7278688;19;153235;-70
2022/04/16 07:22:21;;;;;;;;;;;;;;;20.39;43.47;102824.03;7281851;19;151846;-68
2022/04/16 07:24:49;;;;;;;;;;;;;;;20.39;43.43;102821.25;7281832;19;155253;-65
2022/04/16 07:27:16;;;;;;;;;;;;;;;20.37;43.82;102824.28;7280376;19;153606;-67
2022/04/16 07:29:43;;;;;;;;;;;;;;;20.40;43.67;102829.38;7281047;19;151724;-66
2022/04/16 07:32:09;;;;;;;;;;;;;;;20.39;43.63;102840.91;7280223;19;153683;-66
2022/04/16 07:34:36;;;;;;;;;;;;;;;20.38;43.45;102830.75;7279955;19;154033;-65
2022/04/16 07:37:03;;;;;;;;;;;;;;;20.37;43.53;102832.72;7292439;19;152374;-64
2022/04/16 07:39:30;;;;;;;;;;;;;;;20.36;43.67;102833.81;7286723;19;154002;-64
2022/04/16 07:41:57;;;;;;;;;;;;;;;20.38;43.54;102840.03;7286742;19;151908;-64
2022/04/16 07:44:24;;;;;;;;;;;;;;;20.37;43.80;102840.28;7287745;19;152737;-68
2022/04/16 07:46:51;;;;;;;;;;;;;;;20.37;43.68;102835.53;7284145;19;154211;-67
2022/04/16 07:49:17;;;;;;;;;;;;;;;20.37;43.73;102840.28;7287650;19;151838;-61
2022/04/16 07:51:45;;;;;;;;;;;;;;;20.36;43.76;102841.41;7287349;19;154745;-68
2022/04/16 07:54:12;;;;;;;;;;;;;;;20.37;43.75;102834.69;7286664;19;153557;-66
2022/04/16 07:56:39;;;;;;;;;;;;;;;20.36;43.63;102842.25;7293322;19;152075;-64
2022/04/16 07:59:05;;;;;;;;;;;;;;;20.37;43.78;102841.16;7284824;19;155607;-63
2022/04/16 08:01:32;;;;;;;;;;;;;;;20.36;43.75;102845.06;7287792;19;151763;-69
2022/04/16 08:03:59;;;;;;;;;;;;;;;20.37;43.90;102843.09;7288796;19;152694;-62
2022/04/16 08:06:25;;;;;;;;;;;;;;;20.35;43.52;102842.53;7286465;19;155351;-67
2022/04/16 08:08:52;;;;;;;;;;;;;;;20.36;43.65;102839.44;7287844;19;151985;-67
2022/04/16 08:11:19;;;;;;;;;;;;;;;20.37;43.57;102845.91;7286113;19;152887;-69
2022/04/16 08:13:46;;;;;;;;;;;;;;;20.36;43.84;102849.81;7284138;19;154326;-66
2022/04/16 08:16:12;;;;;;;;;;;;;;;20.35;43.63;102837.72;7285915;19;152070;-63
2022/04/16 08:18:39;;;;;;;;;;;;;;;20.37;43.92;102843.09;7293663;19;153305;-63
2022/04/16 08:21:06;;;;;;;;;;;;;;;20.34;43.90;102840.81;7286751;19;151853;-64
2022/04/16 08:23:34;;;;;;;;;;;;;;;20.35;43.80;102845.34;7287370;19;152539;-67
2022/04/16 08:26:00;;;;;;;;;;;;;;;20.34;43.67;102836.06;7285838;19;154175;-64
2022/04/16 08:28:27;;;;;;;;;;;;;;;20.35;43.59;102842.53;7287396;19;152082;-66
2022/04/16 08:30:54;;;;;;;;;;;;;;;20.34;43.95;102843.63;7286894;19;151759;-67
2022/04/16 08:33:21;;;;;;;;;;;;;;;20.34;43.95;102841.69;7286118;19;154585;-67
2022/04/16 08:35:48;;;;;;;;;;;;;;;20.34;43.92;102840.81;7285665;19;152094;-63
2022/04/16 08:38:15;;;;;;;;;;;;;;;20.34;43.60;102844.47;7284906;19;152599;-67
2022/04/16 08:40:42;;;;;;;;;;;;;;;20.32;43.91;102849.50;7292784;19;154170;-66
2022/04/16 08:43:12;;;;;;;;;;;;;;;20.34;43.57;102852.06;7286873;19;152665;-65
2022/04/16 08:45:40;;;;;;;;;;;;;;;20.33;43.86;102851.19;7285336;19;153241;-68
2022/04/16 08:48:08;;;;;;;;;;;;;;;20.34;43.99;102849.25;7284931;19;152309;-66
2022/04/16 08:50:36;;;;;;;;;;;;;;;20.33;43.88;102850.34;7286621;19;152642;-65
2022/04/16 08:53:03;;;;;;;;;;;;;;;20.35;43.66;102846.16;7285348;19;154033;-70
2022/04/16 08:55:29;;;;;;;;;;;;;;;20.32;43.94;102845.84;7285181;19;153504;-69
2022/04/16 08:57:56;;;;;;;;;;;;;;;20.34;43.67;102852.06;7285971;19;153100;-67
2022/04/16 09:00:24;;;;;;;;;;;;;;;20.34;43.60;102849.25;7285300;19;153210;-63
2022/04/16 09:03:02;;;;;;;;;;;;;;;20.35;43.62;102850.94;7293718;19;152065;-63
2022/04/16 09:05:29;;;;;;;;;;;;;;;20.35;43.79;102846.16;7285016;19;153977;-67
2022/04/16 09:08:00;;;;;;;;;;;;;;;20.35;43.97;102836.91;7286290;19;152601;-66
2022/04/16 09:10:28;;;;;;;;;;;;;;;20.35;43.58;102839.72;7283025;19;153313;-65
2022/04/16 09:12:55;;;;;;;;;;;;;;;20.37;43.99;102835.53;7283455;19;154611;-63
2022/04/16 09:15:23;;;;;;;;;;;;;;;20.39;43.70;102838.09;7285312;19;151762;-66
2022/04/16 09:17:56;;;;;;;;;;;;;;;20.39;43.83;102829.66;7282433;19;153128;-62
2022/04/16 09:20:28;;;;;;;;;;;;;;;20.37;43.76;102827.09;7284884;19;153689;-69
2022/04/16 09:22:55;;;;;;;;;;;;;;;20.41;43.70;102830.22;7285305;19;152354;-66
2022/04/16 09:25:22;;;;;;;;;;;;;;;20.41;43.85;102827.41;7292694;19;152602;-67
2022/04/16 09:27:50;;;;;;;;;;;;;;;20.39;43.89;102827.72;7284620;19;151766;-67
2022/04/16 09:30:24;;;;;;;;;;;;;;;20.41;44.04;102835.84;7283353;19;151824;-63
2022/04/16 09:32:52;;;;;;;;;;;;;;;20.44;43.68;102828.88;7281532;19;154162;-63
2022/04/16 09:35:25;;;;;;;;;;;;;;;20.42;44.00;102829.13;7285446;19;151908;-65
2022/04/16 09:38:10;;;;;;;;;;;;;;;20.42;44.00;102831.94;7283318;19;153554;-67
2022/04/16 09:40:37;;;;;;;;;;;;;;;20.45;43.51;102824.94;7282561;19;153192;-67
2022/04/16 09:43:05;;;;;;;;;;;;;;;20.47;43.44;102819.91;7285439;19;151699;-62
2022/04/16 09:45:32;;;;;;;;;;;;;;;20.45;43.56;102817.38;7284761;19;152609;-65
2022/04/16 09:47:59;;;;;;;;;;;;;;;20.49;43.63;102824.16;7291878;19;152151;-63
2022/04/16 09:50:27;;;;;;;;;;;;;;;20.51;43.86;102829.50;7283854;19;153508;-66
2022/04/16 09:52:55;;;;;;;;;;;;;;;20.53;43.59;102824.50;7284339;19;154064;-65
2022/04/16 09:55:26;;;;;;;;;;;;;;;20.52;43.77;102829.25;7282277;19;151817;-62
2022/04/16 09:58:03;;;;;;;;;;;;;;;20.54;43.82;102829.81;7282280;19;153417;-67
2022/04/16 10:00:34;;;;;;;;;;;;;;;20.55;43.41;102828.72;7279293;19;154250;-68
2022/04/16 10:03:21;;;;;;;;;;;;;;;20.57;43.22;102828.47;7285014;19;151904;-65
2022/04/16 10:05:48;;;;;;;;;;;;;;;20.58;43.64;102822.56;7281999;19;153265;-64
2022/04/16 10:08:15;;;;;;;;;;;;;;;20.56;43.36;102821.16;7288428;19;154183;-63
2022/04/16 10:10:46;;;;;;;;;;;;;;;20.58;43.69;102827.38;7284632;19;153313;-66
2022/04/16 10:13:15;;;;;;;;;;;;;;;20.58;43.45;102824.56;7279197;19;154295;-67
2022/04/16 10:15:44;;;;;;;;;;;;;;;20.60;43.47;102825.13;7281951;19;152459;-70
2022/04/16 10:18:12;;;;;;;;;;;;;;;20.63;43.75;102822.63;7283993;19;152602;-67
2022/04/16 10:20:49;;;;;;;;;;;;;;;20.64;43.77;102817.88;7281678;19;153233;-67
2022/04/16 10:23:24;;;;;;;;;;;;;;;20.66;43.19;102824.94;7281327;19;152080;-63
2022/04/16 10:25:51;;;;;;;;;;;;;;;20.68;43.36;102827.47;7283518;19;154161;-67
2022/04/16 10:28:23;;;;;;;;;;;;;;;20.70;43.52;102820.47;7282416;19;153629;-66
2022/04/16 10:30:51;;;;;;;;;;;;;;;20.75;43.17;102828.13;7291094;19;151820;-69
2022/04/16 10:33:19;;;;;;;;;;;;;;;20.76;43.16;102818.56;7281977;19;154344;-66
2022/04/16 10:35:50;;;;;;;;;;;;;;;20.77;43.07;102821.09;7283817;19;153636;-68
2022/04/16 10:38:23;;;;;;;;;;;;;;;20.80;43.28;102826.19;7289253;19;153719;-68
2022/04/16 10:41:00;;;;;;;;;;;;;;;20.83;43.09;102813.59;7283139;19;153350;-66
2022/04/16 10:43:53;;;;;;;;;;;;;;;20.84;43.32;102810.53;7288322;19;151650;-66
2022/04/16 10:46:20;;;;;;;;;;;;;;;20.88;42.80;102805.22;7283106;19;153076;-63
2022/04/16 10:48:48;;;;;;;;;;;;;;;20.90;43.19;102804.94;7290721;19;153406;-61
2022/04/16 10:51:19;;;;;;;;;;;;;;;20.92;43.05;102795.13;7290819;19;152248;-67
2022/04/16 10:53:46;;;;;;;;;;;;;;;20.96;43.09;102806.69;7293030;19;154134;-63
2022/04/16 10:56:15;;;;;;;;;;;;;;;20.96;42.84;102801.06;7287992;19;152077;-66
2022/04/16 10:58:43;;;;;;;;;;;;;;;20.99;42.65;102792.94;7294066;19;156697;-61
2022/04/16 11:01:10;;;;;;;;;;;;;;;21.01;43.07;102801.97;7286300;19;153782;-65
2022/04/16 11:03:47;;;;;;;;;;;;;;;21.01;42.54;102798.31;7291056;19;152003;-65
2022/04/16 11:06:17;;;;;;;;;;;;;;;21.05;42.67;102796.66;7290309;19;152180;-65
2022/04/16 11:08:48;;;;;;;;;;;;;;;21.06;42.42;102798.34;7296132;19;151226;-63
2022/04/16 11:11:15;;;;;;;;;;;;;;;21.08;42.49;102793.28;7298979;19;151716;-62
2022/04/16 11:13:43;;;;;;;;;;;;;;;21.10;42.64;102791.09;7294186;19;153762;-64
2022/04/16 11:16:11;;;;;;;;;;;;;;;21.11;42.74;102798.41;7295563;19;153738;-63
2022/04/16 11:18:45;;;;;;;;;;;;;;;21.12;42.84;102798.13;7291364;19;153099;-67
2022/04/16 11:21:13;;;;;;;;;;;;;;;21.13;42.26;102801.81;7295637;19;153247;-67
2022/04/16 11:23:44;;;;;;;;;;;;;;;21.14;42.71;102792.28;7290963;19;152815;-65
2022/04/16 11:34:30;;;;;;;;;;;;;;;21.19;42.34;102795.97;7287552;19;154065;-64
2022/04/16 11:37:17;;;;;;;;;;;;;;;21.23;42.44;102796.28;7284988;19;156080;-65
2022/04/16 11:39:46;;;;;;;;;;;;;;;21.23;42.27;102791.50;7298070;19;151990;-69
2022/04/16 11:42:12;;;;;;;;;;;;;;;21.23;42.40;102797.13;7284947;19;153912;-61
2022/04/16 11:44:44;;;;;;;;;;;;;;;21.26;42.38;102792.94;7294742;19;151729;-63
2022/04/16 11:47:12;;;;;;;;;;;;;;;21.28;42.13;102807.56;7286723;19;153345;-62
2022/04/16 11:50:00;;;;;;;;;;;;;;;21.27;41.95;102795.47;7286205;19;151677;-66
2022/04/16 11:52:31;;;;;;;;;;;;;;;21.29;42.31;102798.03;7286583;19;152126;-69
2022/04/16 11:55:22;;;;;;;;;;;;;;;21.30;42.08;102794.94;7280787;19;153694;-63
2022/04/16 11:57:51;;;;;;;;;;;;;;;21.30;42.10;102799.75;7278034;19;153931;-66
2022/04/16 12:00:19;;;;;;;;;;;;;;;21.31;41.91;102798.59;7288560;19;151688;-64
2022/04/16 12:02:49;;;;;;;;;;;;;;;21.34;42.00;102788.78;7281166;19;152054;-63
2022/04/16 12:05:18;;;;;;;;;;;;;;;21.30;41.95;102789.31;7282079;19;151891;-67
2022/04/16 12:07:52;;;;;;;;;;;;;;;21.34;42.13;102783.16;7282057;19;153946;-66
2022/04/16 12:10:19;;;;;;;;;;;;;;;21.36;41.83;102787.41;7277914;19;154021;-66
2022/04/16 12:12:50;;;;;;;;;;;;;;;21.35;42.06;102785.69;7282264;19;152454;-66
2022/04/16 12:15:24;;;;;;;;;;;;;;;21.37;41.58;102788.25;7281512;19;153452;-68
2022/04/16 12:17:51;;;;;;;;;;;;;;;21.36;41.73;102784.59;7277755;19;156334;-63
2022/04/16 12:20:20;;;;;;;;;;;;;;;21.38;42.03;102790.81;7281938;19;152082;-66
2022/04/16 12:22:50;;;;;;;;;;;;;;;21.36;41.94;102786.53;7286328;19;153682;-64
2022/04/16 12:25:20;;;;;;;;;;;;;;;21.36;41.75;102787.41;7291764;19;152148;-63
2022/04/16 12:27:52;;;;;;;;;;;;;;;21.38;41.96;102787.97;7292952;19;154905;-66
2022/04/16 12:30:18;;;;;;;;;;;;;;;21.39;41.51;102786.88;7286818;19;152452;-68
2022/04/16 12:32:55;;;;;;;;;;;;;;;21.41;41.34;102786.59;7287556;19;152053;-70
2022/04/16 12:35:22;;;;;;;;;;;;;;;21.40;41.42;102777.28;7286672;19;152475;-67
2022/04/16 12:37:49;;;;;;;;;;;;;;;21.39;41.55;102781.25;7289889;19;153651;-60
2022/04/16 12:40:16;;;;;;;;;;;;;;;21.41;41.48;102783.78;7289598;19;151793;-66
2022/04/16 12:42:45;;;;;;;;;;;;;;;21.40;41.83;102779.25;7296296;19;152133;-67
2022/04/16 12:45:12;;;;;;;;;;;;;;;21.40;41.63;102776.44;7295741;19;155530;-64
2022/04/16 12:47:39;;;;;;;;;;;;;;;21.39;41.43;102775.63;7288830;19;153249;-67
2022/04/16 12:50:08;;;;;;;;;;;;;;;21.40;41.58;102776.44;7282938;19;154964;-68
2022/04/16 12:52:37;;;;;;;;;;;;;;;21.39;41.60;102767.19;7294194;19;151832;-65